sensor_id;sensor_type;location;lat;lon;timestamp;P1;durP1;ratioP1;P2;durP2;ratioP2
23702;SDS011;12030;50.376;8.762;2023-06-22T00:02:13;6.37;;;5.70;;
23702;SDS011;12030;50.376;8.762;2023-06-22T00:04:39;6.40;;;5.80;;
23702;SDS011;12030;50.376;8.762;2023-06-22T00:07:04;7.32;;;5.63;;
23702;SDS011;12030;50.376;8.762;2023-06-22T00:09:30;6.10;;;5.47;;
23702;SDS011;12030;50.376;8.762;2023-06-22T00:11:56;5.97;;;5.43;;
23702;SDS011;12030;50.376;8.762;2023-06-22T00:14:22;5.87;;;5.20;;
23702;SDS011;12030;50.376;8.762;2023-06-22T00:16:47;5.67;;;5.17;;
23702;SDS011;12030;50.376;8.762;2023-06-22T00:19:14;5.57;;;5.07;;
23702;SDS011;12030;50.376;8.762;2023-06-22T00:21:44;5.40;;;4.90;;
23702;SDS011;12030;50.376;8.762;2023-06-22T00:24:12;5.28;;;4.78;;
23702;SDS011;12030;50.376;8.762;2023-06-22T00:26:37;5.70;;;5.20;;
23702;SDS011;12030;50.376;8.762;2023-06-22T00:29:03;5.13;;;4.63;;
23702;SDS011;12030;50.376;8.762;2023-06-22T00:31:29;5.73;;;4.90;;
23702;SDS011;12030;50.376;8.762;2023-06-22T00:33:54;5.83;;;5.33;;
23702;SDS011;12030;50.376;8.762;2023-06-22T00:36:20;5.70;;;5.20;;
23702;SDS011;12030;50.376;8.762;2023-06-22T00:38:45;6.30;;;5.70;;
23702;SDS011;12030;50.376;8.762;2023-06-22T00:41:11;6.53;;;5.93;;
23702;SDS011;12030;50.376;8.762;2023-06-22T00:43:36;6.43;;;5.83;;
23702;SDS011;12030;50.376;8.762;2023-06-22T00:46:02;7.18;;;6.32;;
23702;SDS011;12030;50.376;8.762;2023-06-22T00:48:28;7.20;;;6.50;;
23702;SDS011;12030;50.376;8.762;2023-06-22T00:50:53;6.90;;;6.20;;
23702;SDS011;12030;50.376;8.762;2023-06-22T00:53:20;6.65;;;6.00;;
23702;SDS011;12030;50.376;8.762;2023-06-22T00:55:46;6.72;;;6.07;;
23702;SDS011;12030;50.376;8.762;2023-06-22T00:58:16;6.60;;;6.00;;
23702;SDS011;12030;50.376;8.762;2023-06-22T01:00:43;6.50;;;6.00;;
23702;SDS011;12030;50.376;8.762;2023-06-22T01:03:08;6.85;;;6.25;;
23702;SDS011;12030;50.376;8.762;2023-06-22T01:05:34;6.82;;;5.97;;
23702;SDS011;12030;50.376;8.762;2023-06-22T01:10:47;6.57;;;5.88;;
23702;SDS011;12030;50.376;8.762;2023-06-22T01:15:57;7.10;;;6.40;;
23702;SDS011;12030;50.376;8.762;2023-06-22T01:18:27;5.93;;;5.43;;
23702;SDS011;12030;50.376;8.762;2023-06-22T01:20:55;6.65;;;5.80;;
23702;SDS011;12030;50.376;8.762;2023-06-22T01:23:26;6.33;;;5.73;;
23702;SDS011;12030;50.376;8.762;2023-06-22T01:28:47;7.93;;;5.63;;
23702;SDS011;12030;50.376;8.762;2023-06-22T01:31:15;6.20;;;5.70;;
23702;SDS011;12030;50.376;8.762;2023-06-22T01:33:44;6.22;;;5.63;;
23702;SDS011;12030;50.376;8.762;2023-06-22T01:36:13;6.80;;;6.20;;
23702;SDS011;12030;50.376;8.762;2023-06-22T01:38:39;6.80;;;6.03;;
23702;SDS011;12030;50.376;8.762;2023-06-22T01:41:06;7.00;;;6.35;;
23702;SDS011;12030;50.376;8.762;2023-06-22T01:43:32;6.70;;;6.10;;
23702;SDS011;12030;50.376;8.762;2023-06-22T01:46:00;6.60;;;6.03;;
23702;SDS011;12030;50.376;8.762;2023-06-22T01:48:27;6.88;;;5.82;;
23702;SDS011;12030;50.376;8.762;2023-06-22T01:50:53;6.70;;;6.00;;
23702;SDS011;12030;50.376;8.762;2023-06-22T01:53:23;7.50;;;6.80;;
23702;SDS011;12030;50.376;8.762;2023-06-22T01:55:49;7.60;;;6.78;;
23702;SDS011;12030;50.376;8.762;2023-06-22T01:58:15;7.40;;;6.70;;
23702;SDS011;12030;50.376;8.762;2023-06-22T02:00:44;7.30;;;6.60;;
23702;SDS011;12030;50.376;8.762;2023-06-22T02:03:19;7.60;;;6.82;;
23702;SDS011;12030;50.376;8.762;2023-06-22T02:05:49;7.25;;;6.55;;
23702;SDS011;12030;50.376;8.762;2023-06-22T02:08:19;7.73;;;7.03;;
23702;SDS011;12030;50.376;8.762;2023-06-22T02:10:47;7.85;;;6.72;;
23702;SDS011;12030;50.376;8.762;2023-06-22T02:13:14;7.60;;;6.90;;
23702;SDS011;12030;50.376;8.762;2023-06-22T02:15:40;7.72;;;7.00;;
23702;SDS011;12030;50.376;8.762;2023-06-22T02:18:06;7.55;;;6.75;;
23702;SDS011;12030;50.376;8.762;2023-06-22T02:20:32;7.68;;;7.07;;
23702;SDS011;12030;50.376;8.762;2023-06-22T02:23:01;8.43;;;7.63;;
23702;SDS011;12030;50.376;8.762;2023-06-22T02:25:26;8.20;;;7.40;;
23702;SDS011;12030;50.376;8.762;2023-06-22T02:27:52;8.20;;;7.50;;
23702;SDS011;12030;50.376;8.762;2023-06-22T02:30:17;9.73;;;7.60;;
23702;SDS011;12030;50.376;8.762;2023-06-22T02:32:43;7.73;;;6.93;;
23702;SDS011;12030;50.376;8.762;2023-06-22T02:35:08;8.33;;;7.63;;
23702;SDS011;12030;50.376;8.762;2023-06-22T02:37:37;8.18;;;7.47;;
23702;SDS011;12030;50.376;8.762;2023-06-22T02:40:06;8.50;;;7.60;;
23702;SDS011;12030;50.376;8.762;2023-06-22T02:42:34;7.93;;;7.22;;
23702;SDS011;12030;50.376;8.762;2023-06-22T02:44:59;8.27;;;7.57;;
23702;SDS011;12030;50.376;8.762;2023-06-22T02:47:25;8.30;;;7.60;;
23702;SDS011;12030;50.376;8.762;2023-06-22T02:49:51;9.10;;;8.30;;
23702;SDS011;12030;50.376;8.762;2023-06-22T02:52:16;8.18;;;7.47;;
23702;SDS011;12030;50.376;8.762;2023-06-22T02:54:42;8.70;;;7.93;;
23702;SDS011;12030;50.376;8.762;2023-06-22T02:57:10;9.00;;;8.18;;
23702;SDS011;12030;50.376;8.762;2023-06-22T02:59:38;9.00;;;8.20;;
23702;SDS011;12030;50.376;8.762;2023-06-22T03:02:07;8.98;;;8.15;;
23702;SDS011;12030;50.376;8.762;2023-06-22T03:04:34;9.13;;;8.30;;
23702;SDS011;12030;50.376;8.762;2023-06-22T03:06:59;8.63;;;7.78;;
23702;SDS011;12030;50.376;8.762;2023-06-22T03:09:26;8.70;;;7.85;;
23702;SDS011;12030;50.376;8.762;2023-06-22T03:11:52;8.27;;;7.57;;
23702;SDS011;12030;50.376;8.762;2023-06-22T03:14:21;8.77;;;7.88;;
23702;SDS011;12030;50.376;8.762;2023-06-22T03:16:47;9.10;;;8.20;;
23702;SDS011;12030;50.376;8.762;2023-06-22T03:19:12;8.70;;;8.00;;
23702;SDS011;12030;50.376;8.762;2023-06-22T03:21:39;9.95;;;9.02;;
23702;SDS011;12030;50.376;8.762;2023-06-22T03:24:05;10.25;;;9.35;;
23702;SDS011;12030;50.376;8.762;2023-06-22T03:26:32;10.47;;;9.27;;
23702;SDS011;12030;50.376;8.762;2023-06-22T03:28:58;11.30;;;9.68;;
23702;SDS011;12030;50.376;8.762;2023-06-22T03:31:23;10.55;;;9.55;;
23702;SDS011;12030;50.376;8.762;2023-06-22T03:33:49;11.23;;;10.07;;
23702;SDS011;12030;50.376;8.762;2023-06-22T03:36:15;11.05;;;10.10;;
23702;SDS011;12030;50.376;8.762;2023-06-22T03:38:45;11.63;;;10.43;;
23702;SDS011;12030;50.376;8.762;2023-06-22T03:41:11;10.37;;;9.37;;
23702;SDS011;12030;50.376;8.762;2023-06-22T03:43:37;11.45;;;10.25;;
23702;SDS011;12030;50.376;8.762;2023-06-22T03:46:03;10.40;;;9.30;;
23702;SDS011;12030;50.376;8.762;2023-06-22T03:48:28;10.93;;;9.13;;
23702;SDS011;12030;50.376;8.762;2023-06-22T03:50:54;13.50;;;10.57;;
23702;SDS011;12030;50.376;8.762;2023-06-22T03:53:19;10.53;;;9.63;;
23702;SDS011;12030;50.376;8.762;2023-06-22T03:55:48;15.13;;;12.30;;
23702;SDS011;12030;50.376;8.762;2023-06-22T03:58:18;11.30;;;10.40;;
23702;SDS011;12030;50.376;8.762;2023-06-22T04:00:48;12.13;;;10.90;;
23702;SDS011;12030;50.376;8.762;2023-06-22T04:03:15;12.77;;;10.70;;
23702;SDS011;12030;50.376;8.762;2023-06-22T04:05:41;11.97;;;10.77;;
23702;SDS011;12030;50.376;8.762;2023-06-22T04:08:07;12.30;;;11.20;;
23702;SDS011;12030;50.376;8.762;2023-06-22T04:10:33;12.67;;;11.50;;
23702;SDS011;12030;50.376;8.762;2023-06-22T04:12:59;12.50;;;11.20;;
23702;SDS011;12030;50.376;8.762;2023-06-22T04:15:25;12.57;;;11.37;;
23702;SDS011;12030;50.376;8.762;2023-06-22T04:17:50;13.00;;;11.10;;
23702;SDS011;12030;50.376;8.762;2023-06-22T04:20:16;13.70;;;12.20;;
23702;SDS011;12030;50.376;8.762;2023-06-22T04:22:41;17.83;;;10.97;;
23702;SDS011;12030;50.376;8.762;2023-06-22T04:25:07;12.77;;;11.50;;
23702;SDS011;12030;50.376;8.762;2023-06-22T04:27:33;12.73;;;11.53;;
23702;SDS011;12030;50.376;8.762;2023-06-22T04:30:05;12.40;;;11.07;;
23702;SDS011;12030;50.376;8.762;2023-06-22T04:32:32;13.40;;;12.03;;
23702;SDS011;12030;50.376;8.762;2023-06-22T04:34:58;13.13;;;11.77;;
23702;SDS011;12030;50.376;8.762;2023-06-22T04:37:25;12.80;;;11.37;;
23702;SDS011;12030;50.376;8.762;2023-06-22T04:39:51;17.27;;;12.97;;
23702;SDS011;12030;50.376;8.762;2023-06-22T04:42:17;13.90;;;11.93;;
23702;SDS011;12030;50.376;8.762;2023-06-22T04:44:42;15.27;;;12.37;;
23702;SDS011;12030;50.376;8.762;2023-06-22T04:47:08;14.03;;;12.57;;
23702;SDS011;12030;50.376;8.762;2023-06-22T04:49:34;17.20;;;11.47;;
23702;SDS011;12030;50.376;8.762;2023-06-22T04:52:06;17.83;;;12.53;;
23702;SDS011;12030;50.376;8.762;2023-06-22T04:54:33;16.20;;;11.77;;
23702;SDS011;12030;50.376;8.762;2023-06-22T04:57:00;17.77;;;12.27;;
23702;SDS011;12030;50.376;8.762;2023-06-22T04:59:27;21.03;;;12.53;;
23702;SDS011;12030;50.376;8.762;2023-06-22T05:01:55;19.00;;;11.73;;
23702;SDS011;12030;50.376;8.762;2023-06-22T05:04:24;16.73;;;12.53;;
23702;SDS011;12030;50.376;8.762;2023-06-22T05:06:51;15.70;;;11.67;;
23702;SDS011;12030;50.376;8.762;2023-06-22T05:09:17;19.87;;;12.47;;
23702;SDS011;12030;50.376;8.762;2023-06-22T05:11:43;17.10;;;12.50;;
23702;SDS011;12030;50.376;8.762;2023-06-22T05:14:09;17.80;;;12.80;;
23702;SDS011;12030;50.376;8.762;2023-06-22T05:16:35;16.40;;;12.03;;
23702;SDS011;12030;50.376;8.762;2023-06-22T05:19:01;13.90;;;12.50;;
23702;SDS011;12030;50.376;8.762;2023-06-22T05:21:28;14.73;;;12.10;;
23702;SDS011;12030;50.376;8.762;2023-06-22T05:23:54;16.77;;;12.03;;
23702;SDS011;12030;50.376;8.762;2023-06-22T05:26:21;15.03;;;12.37;;
23702;SDS011;12030;50.376;8.762;2023-06-22T05:28:47;15.90;;;12.67;;
23702;SDS011;12030;50.376;8.762;2023-06-22T05:31:13;17.77;;;12.37;;
23702;SDS011;12030;50.376;8.762;2023-06-22T05:33:40;14.70;;;12.50;;
23702;SDS011;12030;50.376;8.762;2023-06-22T05:36:07;19.77;;;13.00;;
23702;SDS011;12030;50.376;8.762;2023-06-22T05:38:33;19.40;;;11.80;;
23702;SDS011;12030;50.376;8.762;2023-06-22T05:40:58;14.27;;;12.80;;
23702;SDS011;12030;50.376;8.762;2023-06-22T05:43:24;15.17;;;12.90;;
23702;SDS011;12030;50.376;8.762;2023-06-22T05:45:49;13.63;;;12.27;;
23702;SDS011;12030;50.376;8.762;2023-06-22T05:48:15;17.60;;;12.83;;
23702;SDS011;12030;50.376;8.762;2023-06-22T05:50:40;18.03;;;12.90;;
23702;SDS011;12030;50.376;8.762;2023-06-22T05:53:06;21.60;;;12.87;;
23702;SDS011;12030;50.376;8.762;2023-06-22T05:55:32;16.60;;;11.97;;
23702;SDS011;12030;50.376;8.762;2023-06-22T05:57:57;17.27;;;11.90;;
23702;SDS011;12030;50.376;8.762;2023-06-22T06:00:23;13.53;;;10.83;;
23702;SDS011;12030;50.376;8.762;2023-06-22T06:02:49;13.33;;;11.40;;
23702;SDS011;12030;50.376;8.762;2023-06-22T06:05:14;16.30;;;11.80;;
23702;SDS011;12030;50.376;8.762;2023-06-22T06:07:41;16.00;;;12.07;;
23702;SDS011;12030;50.376;8.762;2023-06-22T06:10:08;20.23;;;12.53;;
23702;SDS011;12030;50.376;8.762;2023-06-22T06:12:34;13.50;;;11.70;;
23702;SDS011;12030;50.376;8.762;2023-06-22T06:15:00;14.57;;;12.90;;
23702;SDS011;12030;50.376;8.762;2023-06-22T06:17:25;19.33;;;11.50;;
23702;SDS011;12030;50.376;8.762;2023-06-22T06:19:51;15.43;;;11.67;;
23702;SDS011;12030;50.376;8.762;2023-06-22T06:22:17;11.50;;;10.37;;
23702;SDS011;12030;50.376;8.762;2023-06-22T06:24:44;13.23;;;10.20;;
23702;SDS011;12030;50.376;8.762;2023-06-22T06:27:10;11.83;;;9.30;;
23702;SDS011;12030;50.376;8.762;2023-06-22T06:29:36;12.87;;;9.90;;
23702;SDS011;12030;50.376;8.762;2023-06-22T06:32:01;13.40;;;9.73;;
23702;SDS011;12030;50.376;8.762;2023-06-22T06:34:27;11.53;;;9.67;;
23702;SDS011;12030;50.376;8.762;2023-06-22T06:36:52;15.13;;;10.37;;
23702;SDS011;12030;50.376;8.762;2023-06-22T06:39:18;11.53;;;9.30;;
23702;SDS011;12030;50.376;8.762;2023-06-22T06:41:43;11.20;;;9.03;;
23702;SDS011;12030;50.376;8.762;2023-06-22T06:44:09;12.10;;;8.80;;
23702;SDS011;12030;50.376;8.762;2023-06-22T06:46:34;9.83;;;8.93;;
23702;SDS011;12030;50.376;8.762;2023-06-22T06:49:00;11.00;;;8.80;;
23702;SDS011;12030;50.376;8.762;2023-06-22T06:51:25;17.87;;;9.67;;
23702;SDS011;12030;50.376;8.762;2023-06-22T06:53:51;12.20;;;8.40;;
23702;SDS011;12030;50.376;8.762;2023-06-22T06:56:17;11.97;;;8.93;;
23702;SDS011;12030;50.376;8.762;2023-06-22T06:58:42;8.67;;;7.87;;
23702;SDS011;12030;50.376;8.762;2023-06-22T07:01:10;9.60;;;8.70;;
23702;SDS011;12030;50.376;8.762;2023-06-22T07:03:38;9.50;;;8.63;;
23702;SDS011;12030;50.376;8.762;2023-06-22T07:06:04;10.47;;;8.67;;
23702;SDS011;12030;50.376;8.762;2023-06-22T07:08:29;11.17;;;8.53;;
23702;SDS011;12030;50.376;8.762;2023-06-22T07:10:55;8.77;;;7.87;;
23702;SDS011;12030;50.376;8.762;2023-06-22T07:13:21;9.10;;;8.30;;
23702;SDS011;12030;50.376;8.762;2023-06-22T07:15:46;9.60;;;7.80;;
23702;SDS011;12030;50.376;8.762;2023-06-22T07:18:12;9.80;;;7.87;;
23702;SDS011;12030;50.376;8.762;2023-06-22T07:20:37;10.13;;;8.13;;
23702;SDS011;12030;50.376;8.762;2023-06-22T07:23:04;9.80;;;8.40;;
23702;SDS011;12030;50.376;8.762;2023-06-22T07:25:30;8.57;;;7.77;;
23702;SDS011;12030;50.376;8.762;2023-06-22T07:27:57;9.63;;;8.70;;
23702;SDS011;12030;50.376;8.762;2023-06-22T07:30:24;9.30;;;8.40;;
23702;SDS011;12030;50.376;8.762;2023-06-22T07:32:49;9.40;;;8.20;;
23702;SDS011;12030;50.376;8.762;2023-06-22T07:35:15;9.50;;;8.57;;
23702;SDS011;12030;50.376;8.762;2023-06-22T07:37:41;9.10;;;8.30;;
23702;SDS011;12030;50.376;8.762;2023-06-22T07:40:07;12.07;;;8.43;;
23702;SDS011;12030;50.376;8.762;2023-06-22T07:42:33;9.87;;;8.43;;
23702;SDS011;12030;50.376;8.762;2023-06-22T07:44:59;9.60;;;7.20;;
23702;SDS011;12030;50.376;8.762;2023-06-22T07:47:25;9.53;;;8.63;;
23702;SDS011;12030;50.376;8.762;2023-06-22T07:49:53;8.73;;;7.77;;
23702;SDS011;12030;50.376;8.762;2023-06-22T07:52:24;8.77;;;7.33;;
23702;SDS011;12030;50.376;8.762;2023-06-22T07:54:50;8.83;;;8.10;;
23702;SDS011;12030;50.376;8.762;2023-06-22T07:57:16;8.03;;;7.20;;
23702;SDS011;12030;50.376;8.762;2023-06-22T07:59:41;9.57;;;7.77;;
23702;SDS011;12030;50.376;8.762;2023-06-22T08:02:07;7.87;;;7.17;;
23702;SDS011;12030;50.376;8.762;2023-06-22T08:04:34;7.40;;;6.77;;
23702;SDS011;12030;50.376;8.762;2023-06-22T08:07:00;8.83;;;7.97;;
23702;SDS011;12030;50.376;8.762;2023-06-22T08:09:27;8.43;;;7.53;;
23702;SDS011;12030;50.376;8.762;2023-06-22T08:11:54;8.75;;;7.40;;
23702;SDS011;12030;50.376;8.762;2023-06-22T08:14:21;8.63;;;7.82;;
23702;SDS011;12030;50.376;8.762;2023-06-22T08:16:47;8.53;;;7.37;;
23702;SDS011;12030;50.376;8.762;2023-06-22T08:19:12;8.13;;;7.40;;
23702;SDS011;12030;50.376;8.762;2023-06-22T08:21:38;8.57;;;7.40;;
23702;SDS011;12030;50.376;8.762;2023-06-22T08:24:04;7.93;;;7.20;;
23702;SDS011;12030;50.376;8.762;2023-06-22T08:26:29;7.67;;;6.97;;
23702;SDS011;12030;50.376;8.762;2023-06-22T08:28:55;8.37;;;6.97;;
23702;SDS011;12030;50.376;8.762;2023-06-22T08:31:20;7.53;;;6.80;;
23702;SDS011;12030;50.376;8.762;2023-06-22T08:33:46;7.55;;;6.85;;
23702;SDS011;12030;50.376;8.762;2023-06-22T08:36:11;9.02;;;6.70;;
23702;SDS011;12030;50.376;8.762;2023-06-22T08:38:38;8.45;;;6.60;;
23702;SDS011;12030;50.376;8.762;2023-06-22T08:41:04;7.45;;;6.57;;
23702;SDS011;12030;50.376;8.762;2023-06-22T08:43:29;7.90;;;6.77;;
23702;SDS011;12030;50.376;8.762;2023-06-22T08:45:55;7.57;;;6.68;;
23702;SDS011;12030;50.376;8.762;2023-06-22T08:48:21;7.68;;;6.85;;
23702;SDS011;12030;50.376;8.762;2023-06-22T08:50:46;8.05;;;7.00;;
23702;SDS011;12030;50.376;8.762;2023-06-22T08:53:12;7.10;;;6.40;;
23702;SDS011;12030;50.376;8.762;2023-06-22T08:55:37;7.80;;;6.57;;
23702;SDS011;12030;50.376;8.762;2023-06-22T08:58:03;6.80;;;6.20;;
23702;SDS011;12030;50.376;8.762;2023-06-22T09:00:28;7.37;;;6.60;;
23702;SDS011;12030;50.376;8.762;2023-06-22T09:02:57;7.37;;;6.27;;
23702;SDS011;12030;50.376;8.762;2023-06-22T09:05:23;7.13;;;6.43;;
23702;SDS011;12030;50.376;8.762;2023-06-22T09:07:51;7.20;;;6.22;;
23702;SDS011;12030;50.376;8.762;2023-06-22T09:10:16;8.27;;;7.10;;
23702;SDS011;12030;50.376;8.762;2023-06-22T09:12:42;7.60;;;6.53;;
23702;SDS011;12030;50.376;8.762;2023-06-22T09:15:08;7.00;;;6.33;;
23702;SDS011;12030;50.376;8.762;2023-06-22T09:17:34;7.25;;;6.55;;
23702;SDS011;12030;50.376;8.762;2023-06-22T09:20:00;7.83;;;5.90;;
23702;SDS011;12030;50.376;8.762;2023-06-22T09:22:27;7.70;;;6.30;;
23702;SDS011;12030;50.376;8.762;2023-06-22T09:24:54;6.80;;;6.17;;
23702;SDS011;12030;50.376;8.762;2023-06-22T09:27:20;7.07;;;6.47;;
23702;SDS011;12030;50.376;8.762;2023-06-22T09:29:47;9.10;;;6.10;;
23702;SDS011;12030;50.376;8.762;2023-06-22T09:32:12;7.03;;;6.30;;
23702;SDS011;12030;50.376;8.762;2023-06-22T09:34:38;7.10;;;6.40;;
23702;SDS011;12030;50.376;8.762;2023-06-22T09:37:04;6.70;;;6.05;;
23702;SDS011;12030;50.376;8.762;2023-06-22T09:39:29;8.30;;;6.45;;
23702;SDS011;12030;50.376;8.762;2023-06-22T09:41:55;6.67;;;6.07;;
23702;SDS011;12030;50.376;8.762;2023-06-22T09:44:22;6.97;;;6.20;;
23702;SDS011;12030;50.376;8.762;2023-06-22T09:46:48;6.93;;;6.23;;
23702;SDS011;12030;50.376;8.762;2023-06-22T09:49:14;6.70;;;5.97;;
23702;SDS011;12030;50.376;8.762;2023-06-22T09:51:39;6.70;;;5.63;;
23702;SDS011;12030;50.376;8.762;2023-06-22T09:54:05;7.30;;;6.10;;
23702;SDS011;12030;50.376;8.762;2023-06-22T09:56:30;7.00;;;5.97;;
23702;SDS011;12030;50.376;8.762;2023-06-22T09:58:56;8.07;;;5.80;;
23702;SDS011;12030;50.376;8.762;2023-06-22T10:01:22;7.10;;;6.40;;
23702;SDS011;12030;50.376;8.762;2023-06-22T10:03:48;6.90;;;6.10;;
23702;SDS011;12030;50.376;8.762;2023-06-22T10:06:14;6.72;;;6.03;;
23702;SDS011;12030;50.376;8.762;2023-06-22T10:08:40;7.60;;;5.60;;
23702;SDS011;12030;50.376;8.762;2023-06-22T10:11:05;6.45;;;5.82;;
23702;SDS011;12030;50.376;8.762;2023-06-22T10:13:31;6.68;;;5.75;;
23702;SDS011;12030;50.376;8.762;2023-06-22T10:15:56;6.47;;;5.53;;
23702;SDS011;12030;50.376;8.762;2023-06-22T10:18:22;6.37;;;5.60;;
23702;SDS011;12030;50.376;8.762;2023-06-22T10:20:48;7.18;;;6.13;;
23702;SDS011;12030;50.376;8.762;2023-06-22T10:23:17;7.30;;;5.82;;
23702;SDS011;12030;50.376;8.762;2023-06-22T10:25:43;6.47;;;5.83;;
23702;SDS011;12030;50.376;8.762;2023-06-22T10:28:09;7.93;;;6.00;;
23702;SDS011;12030;50.376;8.762;2023-06-22T10:30:34;6.50;;;5.90;;
23702;SDS011;12030;50.376;8.762;2023-06-22T10:33:00;9.80;;;6.00;;
23702;SDS011;12030;50.376;8.762;2023-06-22T10:35:25;6.53;;;5.80;;
23702;SDS011;12030;50.376;8.762;2023-06-22T10:37:52;6.30;;;5.70;;
23702;SDS011;12030;50.376;8.762;2023-06-22T10:40:19;6.93;;;6.13;;
23702;SDS011;12030;50.376;8.762;2023-06-22T10:42:44;6.13;;;5.40;;
23702;SDS011;12030;50.376;8.762;2023-06-22T10:45:10;7.30;;;5.68;;
23702;SDS011;12030;50.376;8.762;2023-06-22T10:47:36;6.95;;;6.13;;
23702;SDS011;12030;50.376;8.762;2023-06-22T10:50:02;5.97;;;5.43;;
23702;SDS011;12030;50.376;8.762;2023-06-22T10:52:28;6.47;;;5.75;;
23702;SDS011;12030;50.376;8.762;2023-06-22T10:54:54;5.83;;;5.33;;
23702;SDS011;12030;50.376;8.762;2023-06-22T10:57:19;6.17;;;5.43;;
23702;SDS011;12030;50.376;8.762;2023-06-22T10:59:46;6.15;;;5.38;;
23702;SDS011;12030;50.376;8.762;2023-06-22T11:02:11;6.27;;;4.83;;
23702;SDS011;12030;50.376;8.762;2023-06-22T11:04:37;5.87;;;4.50;;
23702;SDS011;12030;50.376;8.762;2023-06-22T11:07:03;5.13;;;4.70;;
23702;SDS011;12030;50.376;8.762;2023-06-22T11:09:28;4.97;;;4.57;;
23702;SDS011;12030;50.376;8.762;2023-06-22T11:11:55;4.83;;;4.33;;
23702;SDS011;12030;50.376;8.762;2023-06-22T11:14:21;7.05;;;5.05;;
23702;SDS011;12030;50.376;8.762;2023-06-22T11:16:47;6.73;;;4.87;;
23702;SDS011;12030;50.376;8.762;2023-06-22T11:19:13;5.13;;;4.63;;
23702;SDS011;12030;50.376;8.762;2023-06-22T11:21:38;5.80;;;4.97;;
23702;SDS011;12030;50.376;8.762;2023-06-22T11:24:04;4.80;;;4.40;;
23702;SDS011;12030;50.376;8.762;2023-06-22T11:26:30;5.27;;;4.77;;
23702;SDS011;12030;50.376;8.762;2023-06-22T11:28:56;5.90;;;4.70;;
23702;SDS011;12030;50.376;8.762;2023-06-22T11:31:22;5.50;;;5.00;;
23702;SDS011;12030;50.376;8.762;2023-06-22T11:33:48;5.43;;;4.90;;
23702;SDS011;12030;50.376;8.762;2023-06-22T11:36:14;8.60;;;5.00;;
23702;SDS011;12030;50.376;8.762;2023-06-22T11:38:40;6.05;;;4.70;;
23702;SDS011;12030;50.376;8.762;2023-06-22T11:41:06;6.77;;;4.43;;
23702;SDS011;12030;50.376;8.762;2023-06-22T11:43:32;5.30;;;4.57;;
23702;SDS011;12030;50.376;8.762;2023-06-22T11:45:58;8.82;;;4.40;;
23702;SDS011;12030;50.376;8.762;2023-06-22T11:48:24;6.03;;;4.53;;
23702;SDS011;12030;50.376;8.762;2023-06-22T11:50:50;7.13;;;4.63;;
23702;SDS011;12030;50.376;8.762;2023-06-22T11:53:16;4.63;;;4.17;;
23702;SDS011;12030;50.376;8.762;2023-06-22T11:55:42;5.05;;;4.25;;
23702;SDS011;12030;50.376;8.762;2023-06-22T11:58:08;6.53;;;5.07;;
23702;SDS011;12030;50.376;8.762;2023-06-22T12:00:34;6.72;;;5.20;;
23702;SDS011;12030;50.376;8.762;2023-06-22T12:02:59;7.10;;;4.83;;
23702;SDS011;12030;50.376;8.762;2023-06-22T12:05:25;7.83;;;5.10;;
23702;SDS011;12030;50.376;8.762;2023-06-22T12:07:52;7.80;;;4.95;;
23702;SDS011;12030;50.376;8.762;2023-06-22T12:10:18;5.32;;;4.80;;
23702;SDS011;12030;50.376;8.762;2023-06-22T12:12:44;7.20;;;4.90;;
23702;SDS011;12030;50.376;8.762;2023-06-22T12:15:09;6.10;;;5.10;;
23702;SDS011;12030;50.376;8.762;2023-06-22T12:17:36;7.18;;;4.85;;
23702;SDS011;12030;50.376;8.762;2023-06-22T12:20:01;6.03;;;4.83;;
23702;SDS011;12030;50.376;8.762;2023-06-22T12:22:30;7.63;;;5.37;;
23702;SDS011;12030;50.376;8.762;2023-06-22T12:24:59;8.60;;;4.90;;
23702;SDS011;12030;50.376;8.762;2023-06-22T12:27:25;5.50;;;4.93;;
23702;SDS011;12030;50.376;8.762;2023-06-22T12:29:51;5.88;;;5.03;;
23702;SDS011;12030;50.376;8.762;2023-06-22T12:32:17;7.38;;;5.30;;
23702;SDS011;12030;50.376;8.762;2023-06-22T12:34:42;5.97;;;5.32;;
23702;SDS011;12030;50.376;8.762;2023-06-22T12:37:08;7.32;;;5.13;;
23702;SDS011;12030;50.376;8.762;2023-06-22T12:39:34;8.52;;;5.78;;
23702;SDS011;12030;50.376;8.762;2023-06-22T12:42:00;10.73;;;5.25;;
23702;SDS011;12030;50.376;8.762;2023-06-22T12:44:25;7.90;;;6.07;;
23702;SDS011;12030;50.376;8.762;2023-06-22T12:46:51;10.63;;;5.83;;
23702;SDS011;12030;50.376;8.762;2023-06-22T12:49:16;8.93;;;5.32;;
23702;SDS011;12030;50.376;8.762;2023-06-22T12:51:42;7.30;;;5.43;;
23702;SDS011;12030;50.376;8.762;2023-06-22T12:54:08;7.60;;;5.75;;
23702;SDS011;12030;50.376;8.762;2023-06-22T12:56:34;8.40;;;5.90;;
23702;SDS011;12030;50.376;8.762;2023-06-22T12:59:00;9.45;;;5.38;;
23702;SDS011;12030;50.376;8.762;2023-06-22T13:01:26;10.32;;;5.70;;
23702;SDS011;12030;50.376;8.762;2023-06-22T13:03:52;8.13;;;5.37;;
23702;SDS011;12030;50.376;8.762;2023-06-22T13:06:18;9.20;;;5.33;;
23702;SDS011;12030;50.376;8.762;2023-06-22T13:08:44;10.57;;;5.93;;
23702;SDS011;12030;50.376;8.762;2023-06-22T13:11:09;8.68;;;5.53;;
23702;SDS011;12030;50.376;8.762;2023-06-22T13:13:35;8.50;;;5.53;;
23702;SDS011;12030;50.376;8.762;2023-06-22T13:16:00;10.67;;;5.43;;
23702;SDS011;12030;50.376;8.762;2023-06-22T13:18:26;10.05;;;5.68;;
23702;SDS011;12030;50.376;8.762;2023-06-22T13:20:52;9.02;;;5.50;;
23702;SDS011;12030;50.376;8.762;2023-06-22T13:23:19;11.77;;;6.07;;
23702;SDS011;12030;50.376;8.762;2023-06-22T13:25:48;9.82;;;6.13;;
23702;SDS011;12030;50.376;8.762;2023-06-22T13:28:13;9.35;;;5.85;;
23702;SDS011;12030;50.376;8.762;2023-06-22T13:30:40;7.78;;;5.55;;
23702;SDS011;12030;50.376;8.762;2023-06-22T13:33:06;9.02;;;6.22;;
23702;SDS011;12030;50.376;8.762;2023-06-22T13:35:33;9.18;;;5.93;;
23702;SDS011;12030;50.376;8.762;2023-06-22T13:38:00;9.48;;;6.32;;
23702;SDS011;12030;50.376;8.762;2023-06-22T13:40:25;9.90;;;6.35;;
23702;SDS011;12030;50.376;8.762;2023-06-22T13:42:51;11.83;;;6.43;;
23702;SDS011;12030;50.376;8.762;2023-06-22T13:45:17;7.70;;;5.90;;
23702;SDS011;12030;50.376;8.762;2023-06-22T13:47:43;8.45;;;6.18;;
23702;SDS011;12030;50.376;8.762;2023-06-22T13:50:09;9.60;;;6.20;;
23702;SDS011;12030;50.376;8.762;2023-06-22T13:52:35;9.48;;;6.65;;
23702;SDS011;12030;50.376;8.762;2023-06-22T13:55:01;9.38;;;6.40;;
23702;SDS011;12030;50.376;8.762;2023-06-22T13:57:27;11.20;;;6.43;;
23702;SDS011;12030;50.376;8.762;2023-06-22T13:59:52;8.87;;;5.93;;
23702;SDS011;12030;50.376;8.762;2023-06-22T14:02:18;10.83;;;6.20;;
23702;SDS011;12030;50.376;8.762;2023-06-22T14:04:43;8.77;;;6.15;;
23702;SDS011;12030;50.376;8.762;2023-06-22T14:07:09;9.37;;;6.13;;
23702;SDS011;12030;50.376;8.762;2023-06-22T14:09:34;11.70;;;5.60;;
23702;SDS011;12030;50.376;8.762;2023-06-22T14:12:06;12.73;;;6.03;;
23702;SDS011;12030;50.376;8.762;2023-06-22T14:14:32;10.10;;;5.93;;
23702;SDS011;12030;50.376;8.762;2023-06-22T14:16:58;10.55;;;5.90;;
23702;SDS011;12030;50.376;8.762;2023-06-22T14:19:24;8.75;;;5.85;;
23702;SDS011;12030;50.376;8.762;2023-06-22T14:21:50;11.30;;;5.78;;
23702;SDS011;12030;50.376;8.762;2023-06-22T14:24:15;12.37;;;5.97;;
23702;SDS011;12030;50.376;8.762;2023-06-22T14:26:41;9.40;;;5.90;;
23702;SDS011;12030;50.376;8.762;2023-06-22T14:29:06;9.55;;;6.22;;
23702;SDS011;12030;50.376;8.762;2023-06-22T14:31:32;8.57;;;6.10;;
23702;SDS011;12030;50.376;8.762;2023-06-22T14:33:57;10.60;;;6.50;;
23702;SDS011;12030;50.376;8.762;2023-06-22T14:36:23;7.50;;;6.07;;
23702;SDS011;12030;50.376;8.762;2023-06-22T14:38:48;14.30;;;6.60;;
23702;SDS011;12030;50.376;8.762;2023-06-22T14:41:14;9.77;;;5.97;;
23702;SDS011;12030;50.376;8.762;2023-06-22T14:43:48;8.32;;;6.10;;